METAR de aeropuertos de Murcia y cercanos

 

LEMI - Murcia/Corvera
Actualización: 16/04/2021 04:30
Despejado
Despejado
 Viento del NNO
Viento: NNO 22 km/h
Temperatura: 10°C
Wind Chill: 7°C
Rocío: 8°C
Humedad: 88%
Barómetro: 1015 hPa
Resumen: Despejado
Visibilidad: greater than 10 km
2021/04/16 02:30 LEMI 160230Z AUTO 34012KT CAVOK 10/08 Q1015
LERI - Murcia/Alcantarilla
Actualización: 15/04/2021 20:00
NO Actualizado
LLuvia, Cubierto
LLuvia, Cubierto
 Viento del ENE
Viento: ENE 17 km/h
Temperatura: 10°C
Wind Chill: 8°C
Rocío: 9°C
Humedad: 94%
Barómetro: 1016 hPa
Resumen: LLuvia
Nubosidad: Cubierto
Visibilidad: 3 km
Cloud details: Few Clouds 213 m
Partly Cloudy 274 m
Cubierto 579 m
2021/04/15 18:00 LERI 151800Z 07009KT 030V100 3400 RA FEW007 SCT009 OVC019 10/09 Q1016 NOSIG
LELC - Murcia/San Javier
Actualización: 16/04/2021 04:30
Partly Cloudy
Partly Cloudy
 Viento del NNO
Viento: NNO 11 km/h
Temperatura: 11°C
Rocío: 11°C
Humedad: 100%
Barómetro: 1015 hPa
Nubosidad: Partly Cloudy
Visibilidad: 9 km
2021/04/16 02:30 LELC 160230Z AUTO 33006KT 9000 NSC 11/11 Q1015
 
LEAL - Alicante
Actualización: 16/04/2021 04:30
Despejado
Despejado
 Viento del NO
Viento: NO 9 km/h
Temperatura: 9°C
Wind Chill: 7°C
Rocío: 8°C
Humedad: 94%
Barómetro: 1015 hPa
Resumen: Despejado
Visibilidad: greater than 10 km
2021/04/16 02:30 LEAL 160230Z 31005KT CAVOK 09/08 Q1015 NOSIG
LEAB - Albacete
Actualización: 16/04/2021 04:00
Partly Cloudy
Partly Cloudy
 Viento del calm
Viento: Calma
Temperatura: 3°C
Rocío: 2°C
Humedad: 93%
Barómetro: 1017 hPa
Nubosidad: Partly Cloudy
Visibilidad: 9 km
2021/04/16 02:00 LEAB 160200Z 00000KT 9000 NSC 03/02 Q1017 NOSIG
LEAM - Almería
Actualización: 16/04/2021 04:30
Cubierto
Cubierto
 Viento del varies
Viento: varies 2 km/h
Temperatura: 13°C
Rocío: 10°C
Humedad: 82%
Barómetro: 1014 hPa
Nubosidad: Cubierto
Visibilidad: 10 km
Cloud details: Cubierto 2682 m
2021/04/16 02:30 LEAM 160230Z AUTO VRB01KT 9999 OVC088 13/10 Q1014

La estación de MeteoMurcia.com, publica sus datos en los siguientes proyectos:

Weather Underground PWS IMURCIAP2 Meteoclimatic www.awekas.at

W3Counter
Web Analytics